KWST/WST METAR and TAF weather

Enter ICAO airport designator
Station Type Date Time Source
KWST METAR 2021/04/18 02:53 UTC NOAA

KWST 180253Z AUTO 00000KT 10SM OVC060 05/04 A2980 RMK AO2 SLP092 T00500039 51007


Station Type Date Time Source
KWST Decoded METAR 2021/04/18 02:53 UTC NOAA

WESTERLY STATE AIRPORT, RI, United States (KWST) 41-21N 071-48W 21M
Apr 17, 2021 - 10:53 PM EDT / 2021.04.18 0253 UTC
Wind: Calm:0
Visibility: 10 mile(s):0
Sky conditions: overcast
Temperature: 41.0 F (5.0 C)
Dew Point: 39.0 F (3.9 C)
Relative Humidity: 92%
Pressure (altimeter): 29.8 in. Hg (1009 hPa)
Pressure tendency: 0.02 inches (0.7 hPa) higher than three hours ago
ob: KWST 180253Z AUTO 00000KT 10SM OVC060 05/04 A2980 RMK AO2 SLP092 T00500039 51007
cycle: 3

Station Type Date Time Source
KWST TAF UTC NOAA

Error!

Example: see airport list